createdAt,value
2023-04-23T00:00:49.054Z,99672.91
2023-04-23T00:01:35.329Z,99672.22
2023-04-23T00:02:20.107Z,99674.25
2023-04-23T00:03:01.440Z,99648.75
2023-04-23T00:03:43.303Z,99670.19
2023-04-23T00:04:25.229Z,99681.06
2023-04-23T00:05:00.472Z,99674.44
2023-04-23T00:05:49.007Z,99679.38
2023-04-23T00:06:23.516Z,99679.38
2023-04-23T00:07:11.018Z,99668.50
2023-04-23T00:07:45.177Z,99677.50
2023-04-23T00:08:34.035Z,99680.72
2023-04-23T00:09:08.117Z,99683.63
2023-04-23T00:09:50.008Z,99658.31
2023-04-23T00:10:31.094Z,99677.66
2023-04-23T00:11:13.030Z,99680.72
2023-04-23T00:11:54.120Z,99674.94
2023-04-23T00:12:38.019Z,99664.44
2023-04-23T00:13:18.108Z,99664.75
2023-04-23T00:13:59.006Z,99671.91
2023-04-23T00:14:39.326Z,99669.19
2023-04-23T00:15:21.027Z,99664.44
2023-04-23T00:16:02.121Z,99660.16
2023-04-23T00:16:43.145Z,99673.41
2023-04-23T00:17:23.128Z,99663.91
2023-04-23T00:18:04.059Z,99663.75
2023-04-23T00:18:44.155Z,99662.88
2023-04-23T00:19:24.033Z,99661.16
2023-04-23T00:20:04.139Z,99636.88
2023-04-23T00:20:45.007Z,99658.63
2023-04-23T00:21:25.139Z,99654.88
2023-04-23T00:22:06.003Z,99650.81
2023-04-23T00:22:46.089Z,99661.72
2023-04-23T00:23:26.131Z,99653.19
2023-04-23T00:24:06.094Z,99661.72
2023-04-23T00:24:47.005Z,99655.72
2023-04-23T00:25:27.356Z,99650.81
2023-04-23T00:26:08.074Z,99655.91
2023-04-23T00:26:48.315Z,99656.44
2023-04-23T00:27:28.983Z,99648.09
2023-04-23T00:28:10.083Z,99659.66
2023-04-23T00:28:49.971Z,99657.13
2023-04-23T00:29:30.267Z,99656.28
2023-04-23T00:30:16.056Z,99656.94
2023-04-23T00:30:57.195Z,99657.63
2023-04-23T00:31:37.060Z,99657.63
2023-04-23T00:32:17.284Z,99656.94
2023-04-23T00:32:57.027Z,99658.81
2023-04-23T00:33:37.119Z,99656.28
2023-04-23T00:34:17.982Z,99662.56
2023-04-23T00:34:59.109Z,99653.72
2023-04-23T00:35:39.990Z,99657.13
2023-04-23T00:36:20.219Z,99652.03
2023-04-23T00:37:00.996Z,99660.69
2023-04-23T00:37:42.070Z,99663.72
2023-04-23T00:38:23.043Z,99660.00
2023-04-23T00:39:03.091Z,99656.63
2023-04-23T00:39:44.968Z,99649.09
2023-04-23T00:40:25.282Z,99656.63
2023-04-23T00:41:04.971Z,99657.59
2023-04-23T00:41:45.283Z,99654.88
2023-04-23T00:42:26.025Z,99640.63
2023-04-23T00:43:07.359Z,99635.34
2023-04-23T00:43:48.038Z,99619.41
2023-04-23T00:45:25.312Z,99646.03
2023-04-23T00:46:19.319Z,99646.72
2023-04-23T00:47:14.294Z,99640.28
2023-04-23T00:47:55.399Z,99638.22
2023-04-23T00:48:36.440Z,99645.34
2023-04-23T00:49:17.370Z,99631.59
2023-04-23T00:49:51.163Z,99649.25
2023-04-23T00:50:39.356Z,99656.91
2023-04-23T00:51:13.070Z,99644.69
2023-04-23T00:52:00.611Z,99649.44
2023-04-23T00:52:35.877Z,99655.19
2023-04-23T00:53:16.684Z,99650.44
2023-04-23T00:53:50.532Z,99642.47
2023-04-23T00:54:25.038Z,99648.06
2023-04-23T00:55:05.318Z,99637.03
2023-04-23T00:55:40.418Z,99648.75
2023-04-23T00:56:14.697Z,99642.97
2023-04-23T00:56:56.297Z,99646.38
2023-04-23T00:57:30.515Z,99652.31
2023-04-23T00:58:06.874Z,99651.94
2023-04-23T00:58:48.306Z,99647.19
2023-04-23T00:59:22.377Z,99641.59
2023-04-23T00:59:58.272Z,99617.13
2023-04-23T01:00:39.272Z,99636.16
2023-04-23T01:01:13.861Z,99648.38
2023-04-23T01:01:48.401Z,99653.31
2023-04-23T01:02:28.379Z,99647.19
2023-04-23T01:03:04.505Z,99634.47
2023-04-23T01:03:40.614Z,99647.03
2023-04-23T01:04:24.309Z,99647.03
2023-04-23T01:04:58.736Z,99618.00
2023-04-23T01:05:33.157Z,99649.41
2023-04-23T01:06:14.295Z,99639.03
2023-04-23T01:06:49.343Z,99642.91
2023-04-23T01:07:23.404Z,99628.50
2023-04-23T01:08:04.295Z,99646.31
2023-04-23T01:08:39.383Z,99641.72
2023-04-23T01:09:13.579Z,99640.38
2023-04-23T01:09:56.334Z,99636.47
2023-04-23T01:10:32.703Z,99628.34
2023-04-23T01:11:07.453Z,99635.81
2023-04-23T01:11:50.352Z,99643.63
2023-04-23T01:12:24.355Z,99634.78
2023-04-23T01:12:58.102Z,99635.81
2023-04-23T01:13:38.281Z,99641.22
2023-04-23T01:14:12.432Z,99639.72
2023-04-23T01:14:47.230Z,99646.66
2023-04-23T01:15:28.355Z,99633.44
2023-04-23T01:16:03.479Z,99633.94
2023-04-23T01:16:38.556Z,99636.81
2023-04-23T01:17:19.233Z,99636.47
2023-04-23T01:17:53.656Z,99642.59
2023-04-23T01:18:29.616Z,99642.44
2023-04-23T01:19:09.421Z,99636.28
2023-04-23T01:19:43.668Z,99638.34
2023-04-23T01:20:17.428Z,99644.97
2023-04-23T01:20:58.300Z,99632.19
2023-04-23T01:21:32.414Z,99636.78
2023-04-23T01:22:15.586Z,99642.59
2023-04-23T01:22:57.252Z,99638.88
2023-04-23T01:23:31.349Z,99643.28
2023-04-23T01:24:05.795Z,99634.13
2023-04-23T01:24:47.219Z,99632.75
2023-04-23T01:25:21.312Z,99626.31
2023-04-23T01:25:55.530Z,99627.00
2023-04-23T01:26:35.346Z,99623.25
2023-04-23T01:27:09.513Z,99624.63
2023-04-23T01:27:43.332Z,99634.81
2023-04-23T01:28:24.250Z,99618.00
2023-04-23T01:28:59.888Z,99616.50
2023-04-23T01:29:34.796Z,99627.34
2023-04-23T01:30:17.253Z,99638.72
2023-04-23T01:30:52.467Z,99616.84
2023-04-23T01:31:26.766Z,99633.13
2023-04-23T01:32:08.281Z,99629.56
2023-04-23T01:32:42.364Z,99629.25
2023-04-23T01:33:16.342Z,99621.94
2023-04-23T01:34:02.421Z,99630.09
2023-04-23T01:34:40.559Z,99637.03
2023-04-23T01:35:14.998Z,99588.66
2023-04-23T01:35:56.503Z,99596.47
2023-04-23T01:36:31.697Z,99609.91
2023-04-23T01:37:06.192Z,99631.28
2023-04-23T01:37:47.240Z,99629.06
2023-04-23T01:38:21.515Z,99615.31
2023-04-23T01:38:55.050Z,99622.13
2023-04-23T01:39:35.248Z,99611.75
2023-04-23T01:40:10.191Z,99628.38
2023-04-23T01:40:44.549Z,99619.56
2023-04-23T01:41:26.251Z,99625.19
2023-04-23T01:42:01.383Z,99632.13
2023-04-23T01:42:36.247Z,99621.94
2023-04-23T01:43:17.260Z,99625.66
2023-04-23T01:43:51.419Z,99605.47
2023-04-23T01:44:25.009Z,99624.31
2023-04-23T01:45:05.233Z,99625.34
2023-04-23T01:45:39.332Z,99619.75
2023-04-23T01:46:13.268Z,99636.22
2023-04-23T01:46:54.270Z,99634.50
2023-04-23T01:47:28.338Z,99618.06
2023-04-23T01:48:02.078Z,99629.41
2023-04-23T01:48:43.242Z,99625.66
2023-04-23T01:49:17.327Z,99630.78
2023-04-23T01:49:51.021Z,99604.28
2023-04-23T01:50:33.266Z,99627.03
2023-04-23T01:51:07.921Z,99626.34
2023-04-23T01:51:43.394Z,99624.50
2023-04-23T01:52:24.241Z,99634.50
2023-04-23T01:52:58.500Z,99628.41
2023-04-23T01:53:32.026Z,99626.34
2023-04-23T01:54:12.257Z,99630.94
2023-04-23T01:54:46.399Z,99628.75
2023-04-23T01:55:20.505Z,99626.19
2023-04-23T01:56:02.225Z,99622.47
2023-04-23T01:56:36.443Z,99628.44
2023-04-23T01:57:10.754Z,99631.47
2023-04-23T01:57:53.250Z,99627.41
2023-04-23T01:58:27.327Z,99628.44
2023-04-23T01:59:02.554Z,99633.53
2023-04-23T01:59:44.284Z,99627.41
2023-04-23T02:00:20.720Z,99622.47
2023-04-23T02:00:55.008Z,99624.50
2023-04-23T02:01:52.256Z,99593.44
2023-04-23T02:02:26.369Z,99631.84
2023-04-23T02:03:01.060Z,99622.66
2023-04-23T02:03:42.433Z,99625.72
2023-04-23T02:04:17.380Z,99629.44
2023-04-23T02:04:59.324Z,99597.16
2023-04-23T02:05:42.356Z,99614.97
2023-04-23T02:06:23.256Z,99627.03
2023-04-23T02:07:04.459Z,99608.91
2023-04-23T02:07:44.209Z,99610.13
2023-04-23T02:08:24.354Z,99620.63
2023-04-23T02:09:04.228Z,99614.00
2023-04-23T02:09:44.300Z,99613.31
2023-04-23T02:10:32.255Z,99617.03
2023-04-23T02:11:08.956Z,99622.66
2023-04-23T02:11:56.254Z,99603.81
2023-04-23T02:12:30.432Z,99612.63
2023-04-23T02:13:17.203Z,99617.03
2023-04-23T02:13:51.291Z,99579.34
2023-04-23T02:14:38.292Z,99611.13
2023-04-23T02:15:14.397Z,99609.25
2023-04-23T02:15:54.300Z,99613.47
2023-04-23T02:16:35.152Z,99612.13
2023-04-23T02:17:15.270Z,99617.03
2023-04-23T02:17:55.519Z,99600.41
2023-04-23T02:18:35.235Z,99604.47
2023-04-23T02:19:16.862Z,99613.47
2023-04-23T02:19:57.250Z,99612.44
2023-04-23T02:20:40.652Z,99598.38
2023-04-23T02:21:20.217Z,99610.09
2023-04-23T02:22:00.507Z,99608.72
2023-04-23T02:22:40.218Z,99598.88
2023-04-23T02:23:21.250Z,99586.31
2023-04-23T02:24:02.247Z,99609.75
2023-04-23T02:24:42.733Z,99605.34
2023-04-23T02:25:24.242Z,99608.00
2023-04-23T02:26:04.341Z,99611.81
2023-04-23T02:26:44.293Z,99602.44
2023-04-23T02:27:24.280Z,99593.44
2023-04-23T02:28:06.216Z,99605.34
2023-04-23T02:28:46.306Z,99609.09
2023-04-23T02:29:26.255Z,99598.22
2023-04-23T02:30:08.436Z,99594.44
2023-04-23T02:30:52.267Z,99588.69
2023-04-23T02:31:33.318Z,99599.56
2023-04-23T02:32:13.195Z,99593.13
2023-04-23T02:32:53.327Z,99596.53
2023-04-23T02:33:33.211Z,99602.81
2023-04-23T02:34:13.363Z,99604.50
2023-04-23T02:34:53.202Z,99598.38
2023-04-23T02:35:33.321Z,99594.81
2023-04-23T02:36:14.188Z,99596.53
2023-04-23T02:36:54.301Z,99606.72
2023-04-23T02:37:35.266Z,99598.56
2023-04-23T02:38:16.336Z,99593.28
2023-04-23T02:38:57.218Z,99600.75
2023-04-23T02:39:41.422Z,99594.31
2023-04-23T02:40:22.256Z,99589.91
2023-04-23T02:41:02.323Z,99591.09
2023-04-23T02:41:42.174Z,99595.31
2023-04-23T02:42:22.284Z,99585.28
2023-04-23T02:43:03.174Z,99582.56
2023-04-23T02:43:43.383Z,99593.13
2023-04-23T02:44:23.268Z,99592.59
2023-04-23T02:45:03.348Z,99595.31
2023-04-23T02:45:43.184Z,99595.31
2023-04-23T02:46:23.304Z,99597.34
2023-04-23T02:47:03.403Z,99587.66
2023-04-23T02:47:45.319Z,99592.59
2023-04-23T02:48:25.170Z,99564.06
2023-04-23T02:49:06.746Z,99593.25
2023-04-23T02:49:47.184Z,99593.78
2023-04-23T02:50:27.302Z,99598.50
2023-04-23T02:51:09.191Z,99587.31
2023-04-23T02:51:49.340Z,99603.78
2023-04-23T02:52:29.172Z,99595.78
2023-04-23T02:53:09.331Z,99595.13
2023-04-23T02:53:49.586Z,99586.81
2023-04-23T02:54:32.453Z,99600.72
2023-04-23T02:55:14.169Z,99582.56
2023-04-23T02:55:54.226Z,99595.28
2023-04-23T02:56:34.180Z,99596.50
2023-04-23T02:57:15.601Z,99599.38
2023-04-23T02:57:55.173Z,99588.66
2023-04-23T02:58:37.456Z,99596.47
2023-04-23T02:59:18.203Z,99587.63
2023-04-23T02:59:58.301Z,99595.09
2023-04-23T03:00:38.184Z,99582.72
2023-04-23T03:01:18.300Z,99602.25
2023-04-23T03:01:59.261Z,99595.13
2023-04-23T03:02:39.300Z,99604.28
2023-04-23T03:03:19.280Z,99596.16
2023-04-23T03:04:00.455Z,99583.06
2023-04-23T03:04:40.465Z,99603.75
2023-04-23T03:05:21.242Z,99600.91
2023-04-23T03:06:02.184Z,99603.94
2023-04-23T03:06:42.713Z,99595.47
2023-04-23T03:07:24.203Z,99598.34
2023-04-23T03:08:04.229Z,99593.44
2023-04-23T03:08:44.145Z,99585.63
2023-04-23T03:09:24.249Z,99601.56
2023-04-23T03:10:04.185Z,99604.59
2023-04-23T03:10:44.275Z,99602.41
2023-04-23T03:11:24.216Z,99602.59
2023-04-23T03:12:04.261Z,99599.03
2023-04-23T03:12:44.172Z,99598.84
2023-04-23T03:13:24.313Z,99586.97
2023-04-23T03:14:04.154Z,99588.00
2023-04-23T03:14:44.304Z,99598.34
2023-04-23T03:15:25.212Z,99603.09
2023-04-23T03:16:06.225Z,99598.19
2023-04-23T03:16:46.241Z,99604.81
2023-04-23T03:17:26.317Z,99593.06
2023-04-23T03:18:08.220Z,99586.28
2023-04-23T03:18:48.431Z,99606.66
2023-04-23T03:19:28.146Z,99596.81
2023-04-23T03:20:08.799Z,99599.53
2023-04-23T03:20:50.144Z,99591.38
2023-04-23T03:21:30.380Z,99590.91
2023-04-23T03:22:12.136Z,99598.50
2023-04-23T03:22:52.207Z,99595.13
2023-04-23T03:23:32.220Z,99592.59
2023-04-23T03:24:13.304Z,99584.63
2023-04-23T03:24:53.403Z,99597.16
2023-04-23T03:25:33.296Z,99578.50
2023-04-23T03:26:13.163Z,99580.72
2023-04-23T03:26:53.270Z,99595.97
2023-04-23T03:27:33.144Z,99589.69
2023-04-23T03:28:13.327Z,99594.09
2023-04-23T03:28:53.153Z,99596.13
2023-04-23T03:29:34.293Z,99581.53
2023-04-23T03:30:16.150Z,99586.97
2023-04-23T03:30:57.275Z,99594.25
2023-04-23T03:31:37.246Z,99598.84
2023-04-23T03:32:18.481Z,99592.38
2023-04-23T03:33:00.230Z,99573.34
2023-04-23T03:33:40.253Z,99595.75
2023-04-23T03:34:21.149Z,99582.19
2023-04-23T03:35:01.266Z,99590.00
2023-04-23T03:35:41.143Z,99587.97
2023-04-23T03:36:21.417Z,99598.31
2023-04-23T03:37:02.176Z,99590.66
2023-04-23T03:37:42.281Z,99588.66
2023-04-23T03:38:22.134Z,99572.16
2023-04-23T03:39:02.341Z,99573.03
2023-04-23T03:39:42.185Z,99587.63
2023-04-23T03:40:22.261Z,99587.28
2023-04-23T03:41:02.149Z,99578.28
2023-04-23T03:41:42.337Z,99590.84
2023-04-23T03:42:24.483Z,99591.50
2023-04-23T03:43:04.245Z,99586.91
2023-04-23T03:43:44.214Z,99582.34
2023-04-23T03:44:24.297Z,99584.69
2023-04-23T03:45:04.135Z,99585.00
2023-04-23T03:45:44.280Z,99580.44
2023-04-23T03:46:24.216Z,99582.47
2023-04-23T03:47:04.779Z,99603.50
2023-04-23T03:47:47.209Z,99581.63
2023-04-23T03:48:28.293Z,99573.13
2023-04-23T03:49:08.143Z,99583.84
2023-04-23T03:49:48.323Z,99594.38
2023-04-23T03:50:29.153Z,99580.59
2023-04-23T03:51:10.066Z,99574.66
2023-04-23T03:51:50.169Z,99579.44
2023-04-23T03:52:30.586Z,99595.91
2023-04-23T03:53:13.318Z,99601.44
2023-04-23T03:53:53.208Z,99594.84
2023-04-23T03:54:35.110Z,99581.78
2023-04-23T03:55:16.207Z,99597.06
2023-04-23T03:55:56.146Z,99597.06
2023-04-23T03:56:36.192Z,99581.44
2023-04-23T03:57:18.128Z,99599.59
2023-04-23T03:57:59.499Z,99595.00
2023-04-23T03:58:42.143Z,99590.13
2023-04-23T03:59:22.894Z,99592.28
2023-04-23T04:00:04.258Z,99592.28
2023-04-23T04:00:45.637Z,99598.75
2023-04-23T04:01:25.094Z,99595.38
2023-04-23T04:02:06.070Z,99596.22
2023-04-23T04:02:47.304Z,99590.97
2023-04-23T04:03:27.447Z,99593.69
2023-04-23T04:04:09.370Z,99602.47
2023-04-23T04:04:51.728Z,99590.28
2023-04-23T04:05:33.160Z,99591.47
2023-04-23T04:06:27.113Z,99586.22
2023-04-23T04:07:21.123Z,99594.69
2023-04-23T04:08:15.128Z,99597.41
2023-04-23T04:09:09.165Z,99588.44
2023-04-23T04:10:03.134Z,99598.09
2023-04-23T04:10:57.136Z,99581.81
2023-04-23T04:11:53.282Z,99596.75
2023-04-23T04:12:48.160Z,99587.22
2023-04-23T04:13:42.084Z,99600.66
2023-04-23T04:14:30.226Z,99588.25
2023-04-23T04:15:04.296Z,99596.06
2023-04-23T04:15:51.132Z,99587.22
2023-04-23T04:16:26.254Z,99582.34
2023-04-23T04:17:14.183Z,99592.53
2023-04-23T04:17:48.265Z,99586.91
2023-04-23T04:18:35.128Z,99587.94
2023-04-23T04:19:10.224Z,99583.84
2023-04-23T04:19:50.160Z,99590.97
2023-04-23T04:20:30.179Z,99585.91
2023-04-23T04:21:10.113Z,99572.63
2023-04-23T04:21:51.224Z,99566.50
2023-04-23T04:22:31.114Z,99595.38
2023-04-23T04:23:11.300Z,99588.25
2023-04-23T04:23:54.091Z,99583.84
2023-04-23T04:24:35.544Z,99581.78
2023-04-23T04:25:17.184Z,99579.75
2023-04-23T04:25:57.744Z,99580.06
2023-04-23T04:26:39.100Z,99577.34
2023-04-23T04:27:20.751Z,99583.63
2023-04-23T04:28:02.127Z,99589.03
2023-04-23T04:28:42.265Z,99578.44
2023-04-23T04:29:23.404Z,99580.13
2023-04-23T04:30:03.273Z,99587.06
2023-04-23T04:30:45.108Z,99571.75
2023-04-23T04:31:25.669Z,99588.75
2023-04-23T04:32:08.145Z,99588.75
2023-04-23T04:32:50.862Z,99578.56
2023-04-23T04:33:32.091Z,99573.78
2023-04-23T04:34:14.714Z,99587.38
2023-04-23T04:34:56.097Z,99584.66
2023-04-23T04:35:36.298Z,99586.69
2023-04-23T04:36:17.217Z,99576.81
2023-04-23T04:36:57.268Z,99592.28
2023-04-23T04:37:38.155Z,99582.09
2023-04-23T04:38:18.423Z,99586.31
2023-04-23T04:38:59.081Z,99591.91
2023-04-23T04:39:39.382Z,99593.06
2023-04-23T04:40:21.100Z,99594.72
2023-04-23T04:41:02.343Z,99585.56
2023-04-23T04:41:44.171Z,99585.94
2023-04-23T04:42:25.434Z,99592.56
2023-04-23T04:43:07.077Z,99592.03
2023-04-23T04:43:48.361Z,99584.59
2023-04-23T04:44:29.085Z,99572.13
2023-04-23T04:45:10.155Z,99584.72
2023-04-23T04:45:51.067Z,99592.00
2023-04-23T04:46:31.985Z,99587.72
2023-04-23T04:47:16.160Z,99586.88
2023-04-23T04:47:56.335Z,99595.34
2023-04-23T04:48:37.110Z,99600.03
2023-04-23T04:49:19.621Z,99582.56
2023-04-23T04:50:04.092Z,99594.97
2023-04-23T04:50:44.382Z,99592.63
2023-04-23T04:51:24.091Z,99595.72
2023-04-23T04:52:04.501Z,99588.25
2023-04-23T04:52:45.212Z,99588.81
2023-04-23T04:53:25.397Z,99584.16
2023-04-23T04:54:05.110Z,99587.94
2023-04-23T04:54:45.254Z,99595.56
2023-04-23T04:55:25.070Z,99586.56
2023-04-23T04:56:05.510Z,99587.06
2023-04-23T04:56:46.062Z,99584.22
2023-04-23T04:57:26.252Z,99594.09
2023-04-23T04:58:06.087Z,99583.88
2023-04-23T04:58:46.140Z,99585.94
2023-04-23T04:59:27.044Z,99586.97
2023-04-23T05:00:31.579Z,99582.09
2023-04-23T05:01:12.104Z,99597.91
2023-04-23T05:01:52.663Z,99591.09
2023-04-23T05:02:33.211Z,99600.97
2023-04-23T05:03:20.217Z,99597.41
2023-04-23T05:04:14.188Z,99580.78
2023-04-23T05:05:08.059Z,99583.00
2023-04-23T05:06:03.140Z,99588.66
2023-04-23T05:06:50.136Z,99585.13
2023-04-23T05:07:31.072Z,99576.63
2023-04-23T05:08:11.227Z,99581.06
2023-04-23T05:08:55.112Z,99592.09
2023-04-23T05:09:35.402Z,99583.81
2023-04-23T05:10:16.103Z,99591.97
2023-04-23T05:10:56.190Z,99591.97
2023-04-23T05:11:37.083Z,99587.22
2023-04-23T05:12:17.172Z,99587.75
2023-04-23T05:12:58.027Z,99582.50
2023-04-23T05:13:38.245Z,99595.25
2023-04-23T05:14:19.106Z,99594.22
2023-04-23T05:14:59.196Z,99594.06
2023-04-23T05:15:39.064Z,99583.03
2023-04-23T05:16:20.248Z,99587.44
2023-04-23T05:17:01.091Z,99593.41
2023-04-23T05:17:41.373Z,99588.31
2023-04-23T05:18:21.218Z,99580.84
2023-04-23T05:19:01.215Z,99575.06
2023-04-23T05:19:41.063Z,99578.50
2023-04-23T05:20:21.142Z,99584.41
2023-04-23T05:21:02.090Z,99580.34
2023-04-23T05:21:42.524Z,99575.78
2023-04-23T05:22:24.116Z,99575.94
2023-04-23T05:23:04.197Z,99580.19
2023-04-23T05:23:45.051Z,99580.72
2023-04-23T05:24:25.174Z,99586.63
2023-04-23T05:25:06.058Z,99577.47
2023-04-23T05:25:47.150Z,99565.94
2023-04-23T05:26:27.035Z,99573.38
2023-04-23T05:27:07.156Z,99578.00
2023-04-23T05:27:48.221Z,99583.25
2023-04-23T05:28:29.150Z,99578.50
2023-04-23T05:29:11.030Z,99577.00
2023-04-23T05:29:51.117Z,99578.16
2023-04-23T05:30:31.033Z,99583.59
2023-04-23T05:31:11.399Z,99580.53
2023-04-23T05:31:52.148Z,99586.97
2023-04-23T05:32:32.209Z,99569.69
2023-04-23T05:33:13.135Z,99574.41
2023-04-23T05:33:53.305Z,99579.03
2023-04-23T05:34:33.047Z,99575.78
2023-04-23T05:35:14.124Z,99575.63
2023-04-23T05:35:54.040Z,99578.16
2023-04-23T05:36:34.126Z,99579.84
2023-04-23T05:37:15.051Z,99574.09
2023-04-23T05:37:55.302Z,99572.03
2023-04-23T05:38:35.031Z,99544.56
2023-04-23T05:39:15.115Z,99574.09
2023-04-23T05:39:55.073Z,99580.25
2023-04-23T05:40:35.109Z,99581.09
2023-04-23T05:41:16.120Z,99574.97
2023-04-23T05:41:56.455Z,99574.59
2023-04-23T05:42:36.068Z,99578.53
2023-04-23T05:43:16.362Z,99571.22
2023-04-23T05:43:56.039Z,99573.25
2023-04-23T05:44:37.098Z,99585.63
2023-04-23T05:45:18.170Z,99570.00
2023-04-23T05:45:58.188Z,99569.84
2023-04-23T05:46:38.059Z,99574.75
2023-04-23T05:47:21.591Z,99582.22
2023-04-23T05:48:02.096Z,99580.53
2023-04-23T05:48:42.402Z,99575.75
2023-04-23T05:49:23.027Z,99580.00
2023-04-23T05:50:03.160Z,99566.94
2023-04-23T05:50:44.006Z,99567.94
2023-04-23T05:51:25.064Z,99579.84
2023-04-23T05:52:06.102Z,99574.72
2023-04-23T05:52:46.271Z,99582.53
2023-04-23T05:53:27.034Z,99575.56
2023-04-23T05:54:07.159Z,99568.13
2023-04-23T05:54:49.024Z,99571.69
2023-04-23T05:55:30.122Z,99569.00
2023-04-23T05:56:11.005Z,99573.38
2023-04-23T05:56:52.813Z,99571.69
2023-04-23T05:57:35.073Z,99563.53
2023-04-23T05:58:16.379Z,99562.47
2023-04-23T05:58:56.022Z,99573.47
2023-04-23T05:59:36.069Z,99571.31
2023-04-23T06:00:18.062Z,99573.66
2023-04-23T06:00:58.083Z,99570.56
2023-04-23T06:01:39.060Z,99564.94
2023-04-23T06:02:51.232Z,99568.34
2023-04-23T06:03:31.292Z,99573.94
2023-04-23T06:04:12.259Z,99576.84
2023-04-23T06:04:52.630Z,99582.75
2023-04-23T06:05:33.092Z,99553.22
2023-04-23T06:06:14.064Z,99570.84
2023-04-23T06:06:53.993Z,99569.13
2023-04-23T06:07:34.066Z,99573.88
2023-04-23T06:08:14.050Z,99574.19
2023-04-23T06:08:54.065Z,99573.81
2023-04-23T06:09:35.015Z,99567.41
2023-04-23T06:10:17.172Z,99557.69
2023-04-23T06:10:56.977Z,99563.25
2023-04-23T06:11:38.197Z,99577.88
2023-04-23T06:12:17.999Z,99568.69
2023-04-23T06:12:58.146Z,99567.47
2023-04-23T06:13:39.307Z,99556.09
2023-04-23T06:14:21.165Z,99558.09
2023-04-23T06:15:01.016Z,99570.84
2023-04-23T06:15:41.209Z,99565.00
2023-04-23T06:16:21.009Z,99569.28
2023-04-23T06:17:02.126Z,99570.22
2023-04-23T06:17:43.053Z,99568.84
2023-04-23T06:18:23.070Z,99574.22
2023-04-23T06:19:02.991Z,99564.56
2023-04-23T06:19:43.095Z,99568.00
2023-04-23T06:20:23.003Z,99562.72
2023-04-23T06:21:05.995Z,99552.22
2023-04-23T06:21:46.007Z,99556.88
2023-04-23T06:22:26.204Z,99558.19
2023-04-23T06:23:05.963Z,99553.28
2023-04-23T06:23:46.286Z,99560.56
2023-04-23T06:24:27.005Z,99562.63
2023-04-23T06:25:08.176Z,99538.72
2023-04-23T06:25:47.989Z,99560.84
2023-04-23T06:26:28.093Z,99560.81
2023-04-23T06:27:08.967Z,99554.31
2023-04-23T06:27:49.077Z,99554.88
2023-04-23T06:28:29.126Z,99565.88
2023-04-23T06:29:10.042Z,99549.19
2023-04-23T06:29:49.990Z,99546.44
2023-04-23T06:30:30.041Z,99554.53
2023-04-23T06:31:14.011Z,99547.09
2023-04-23T06:31:54.092Z,99540.91
2023-04-23T06:32:33.996Z,99557.97
2023-04-23T06:33:15.292Z,99553.84
2023-04-23T06:33:57.154Z,99547.38
2023-04-23T06:34:43.999Z,99538.88
2023-04-23T06:35:29.982Z,99523.09
2023-04-23T06:36:11.079Z,99549.56
2023-04-23T06:36:50.961Z,99534.28
2023-04-23T06:37:32.052Z,99541.72
2023-04-23T06:38:12.977Z,99544.88
2023-04-23T06:38:53.050Z,99542.16
2023-04-23T06:39:32.979Z,99545.34
2023-04-23T06:40:14.091Z,99534.09
2023-04-23T06:40:54.031Z,99541.03
2023-04-23T06:41:35.121Z,99538.78
2023-04-23T06:42:18.022Z,99544.69
2023-04-23T06:42:58.254Z,99524.38
2023-04-23T06:43:37.953Z,99530.13
2023-04-23T06:44:18.062Z,99525.53
2023-04-23T06:44:57.990Z,99537.66
2023-04-23T06:45:39.112Z,99520.34
2023-04-23T06:46:19.173Z,99526.28
2023-04-23T06:46:59.125Z,99539.34
2023-04-23T06:47:38.986Z,99538.97
2023-04-23T06:48:19.370Z,99538.22
2023-04-23T06:48:59.974Z,99530.31
2023-04-23T06:49:41.192Z,99535.78
2023-04-23T06:50:20.976Z,99534.75
2023-04-23T06:51:01.010Z,99524.59
2023-04-23T06:51:41.998Z,99525.91
2023-04-23T06:52:22.063Z,99536.50
2023-04-23T06:53:02.935Z,99535.94
2023-04-23T06:53:44.108Z,99531.34
2023-04-23T06:54:23.956Z,99535.66
2023-04-23T06:55:04.065Z,99526.34
2023-04-23T06:55:44.207Z,99531.53
2023-04-23T06:56:24.024Z,99529.53
2023-04-23T06:57:05.135Z,99517.41
2023-04-23T06:57:46.226Z,99524.75
2023-04-23T06:58:25.956Z,99530.44
2023-04-23T06:59:07.007Z,99527.53
2023-04-23T06:59:46.926Z,99528.00
2023-04-23T07:00:32.195Z,99530.16
2023-04-23T07:01:14.076Z,99531.78
2023-04-23T07:01:55.245Z,99524.59
2023-04-23T07:02:35.031Z,99516.72
2023-04-23T07:03:15.098Z,99525.19
2023-04-23T07:03:58.015Z,99525.19
2023-04-23T07:04:38.144Z,99526.47
2023-04-23T07:05:17.986Z,99530.31
2023-04-23T07:05:59.062Z,99522.84
2023-04-23T07:06:41.042Z,99519.72
2023-04-23T07:07:21.045Z,99512.19
2023-04-23T07:08:01.017Z,99520.66
2023-04-23T07:08:41.547Z,99514.16
2023-04-23T07:09:21.926Z,99511.63
2023-04-23T07:10:04.096Z,99518.63
2023-04-23T07:10:43.974Z,99520.25
2023-04-23T07:11:24.084Z,99520.41
2023-04-23T07:12:03.995Z,99515.84
2023-04-23T07:12:46.137Z,99512.13
2023-04-23T07:13:25.981Z,99517.41
2023-04-23T07:14:07.035Z,99515.78
2023-04-23T07:14:46.960Z,99514.75
2023-04-23T07:15:28.662Z,99506.66
2023-04-23T07:16:08.964Z,99521.34
2023-04-23T07:16:49.063Z,99503.34
2023-04-23T07:17:30.154Z,99501.34
2023-04-23T07:18:12.138Z,99513.81
2023-04-23T07:18:51.967Z,99508.53
2023-04-23T07:19:32.091Z,99512.13
2023-04-23T07:20:12.958Z,99509.19
2023-04-23T07:20:53.197Z,99517.84
2023-04-23T07:21:34.968Z,99513.69
2023-04-23T07:22:16.143Z,99505.00
2023-04-23T07:22:55.946Z,99509.38
2023-04-23T07:23:36.043Z,99516.19
2023-04-23T07:24:16.018Z,99510.41
2023-04-23T07:24:56.122Z,99508.81
2023-04-23T07:25:37.988Z,99504.09
2023-04-23T07:26:19.048Z,99503.63
2023-04-23T07:26:59.024Z,99511.25
2023-04-23T07:27:39.116Z,99506.06
2023-04-23T07:28:18.982Z,99509.56
2023-04-23T07:29:01.199Z,99507.00
2023-04-23T07:29:41.012Z,99502.66
2023-04-23T07:30:22.072Z,99495.44
2023-04-23T07:31:02.976Z,99493.81
2023-04-23T07:31:44.467Z,99497.44
2023-04-23T07:32:26.005Z,99492.41
2023-04-23T07:33:06.098Z,99503.16
2023-04-23T07:33:45.953Z,99502.63
2023-04-23T07:34:27.087Z,99503.50
2023-04-23T07:35:06.929Z,99502.06
2023-04-23T07:35:47.096Z,99501.34
2023-04-23T07:36:26.896Z,99506.38
2023-04-23T07:37:08.048Z,99496.09
2023-04-23T07:37:47.961Z,99502.81
2023-04-23T07:38:29.049Z,99498.25
2023-04-23T07:39:08.924Z,99493.59
2023-04-23T07:39:49.241Z,99500.50
2023-04-23T07:40:31.053Z,99488.16
2023-04-23T07:41:11.081Z,99502.69
2023-04-23T07:41:50.920Z,99498.47
2023-04-23T07:42:32.029Z,99479.47
2023-04-23T07:43:13.393Z,99495.53
2023-04-23T07:43:53.056Z,99493.06
2023-04-23T07:44:32.964Z,99491.97
2023-04-23T07:45:14.531Z,99488.59
2023-04-23T07:45:55.076Z,99494.31
2023-04-23T07:46:36.007Z,99479.78
2023-04-23T07:47:15.943Z,99488.38
2023-04-23T07:47:57.558Z,99493.09
2023-04-23T07:48:37.958Z,99488.28
2023-04-23T07:49:18.009Z,99486.41
2023-04-23T07:49:58.022Z,99492.75
2023-04-23T07:50:39.014Z,99474.44
2023-04-23T07:51:23.069Z,99492.53
2023-04-23T07:52:04.026Z,99486.44
2023-04-23T07:52:44.944Z,99489.81
2023-04-23T07:53:28.526Z,99488.16
2023-04-23T07:54:08.884Z,99485.56
2023-04-23T07:54:50.280Z,99467.47
2023-04-23T07:55:31.921Z,99483.97
2023-04-23T07:56:13.076Z,99476.00
2023-04-23T07:56:52.946Z,99482.91